createdAt,value
2023-03-11T00:01:48.414Z,94328.44
2023-03-11T00:04:16.369Z,94342.13
2023-03-11T00:06:44.333Z,94330.25
2023-03-11T00:09:12.243Z,94331.75
2023-03-11T00:11:40.213Z,94337.38
2023-03-11T00:14:08.122Z,94326.56
2023-03-11T00:16:36.193Z,94327.88
2023-03-11T00:19:05.506Z,94328.44
2023-03-11T00:21:33.696Z,94330.03
2023-03-11T00:24:03.701Z,94314.63
2023-03-11T00:26:31.661Z,94326.16
2023-03-11T00:28:59.571Z,94313.47
2023-03-11T00:31:27.789Z,94314.78
2023-03-11T00:33:57.342Z,94311.00
2023-03-11T00:36:31.535Z,94319.97
2023-03-11T00:39:00.325Z,94323.56
2023-03-11T00:41:28.442Z,94316.38
2023-03-11T00:43:56.462Z,94318.00
2023-03-11T00:46:24.503Z,94304.41
2023-03-11T00:48:53.248Z,94295.88
2023-03-11T00:51:21.452Z,94288.69
2023-03-11T00:53:50.816Z,94276.72
2023-03-11T00:56:19.335Z,94283.44
2023-03-11T00:58:47.468Z,94283.22
2023-03-11T01:01:18.257Z,94286.41
2023-03-11T01:03:47.312Z,94287.63
2023-03-11T01:06:15.919Z,94278.47
2023-03-11T01:08:43.826Z,94273.53
2023-03-11T01:11:13.224Z,94262.94
2023-03-11T01:13:41.280Z,94264.06
2023-03-11T01:16:09.459Z,94268.38
2023-03-11T01:18:37.715Z,94275.25
2023-03-11T01:21:06.315Z,94261.28
2023-03-11T01:23:34.338Z,94254.41
2023-03-11T01:26:02.245Z,94246.94
2023-03-11T01:28:31.655Z,94243.31
2023-03-11T01:30:59.911Z,94239.19
2023-03-11T01:33:29.166Z,94234.16
2023-03-11T01:35:57.227Z,94231.91
2023-03-11T01:38:28.710Z,94221.88
2023-03-11T01:40:56.761Z,94216.03
2023-03-11T01:43:54.557Z,94205.97
2023-03-11T01:46:27.628Z,94188.50
2023-03-11T01:48:58.584Z,94184.31
2023-03-11T01:51:31.294Z,94198.31
2023-03-11T01:54:03.690Z,94188.81
2023-03-11T01:56:32.257Z,94188.03
2023-03-11T01:59:02.151Z,94186.34
2023-03-11T02:01:30.692Z,94171.03
2023-03-11T02:04:03.781Z,94168.31
2023-03-11T02:06:33.655Z,94168.09
2023-03-11T02:09:02.515Z,94166.22
2023-03-11T02:11:32.385Z,94153.28
2023-03-11T02:14:05.800Z,94143.00
2023-03-11T02:16:34.071Z,94137.84
2023-03-11T02:19:12.124Z,94138.38
2023-03-11T02:21:40.958Z,94134.88
2023-03-11T02:24:14.449Z,94146.00
2023-03-11T02:26:51.884Z,94130.16
2023-03-11T02:29:21.506Z,94139.69
2023-03-11T02:31:50.703Z,94147.28
2023-03-11T02:34:25.639Z,94141.47
2023-03-11T02:36:53.957Z,94144.75
2023-03-11T02:39:31.085Z,94144.53
2023-03-11T02:42:03.681Z,94134.16
2023-03-11T02:44:31.666Z,94122.31
2023-03-11T02:47:01.235Z,94127.41
2023-03-11T02:49:31.273Z,94130.25
2023-03-11T02:51:59.174Z,94129.91
2023-03-11T02:54:29.232Z,94142.44
2023-03-11T02:56:58.712Z,94139.56
2023-03-11T02:59:29.873Z,94139.28
2023-03-11T03:01:59.441Z,94135.94
2023-03-11T03:04:28.041Z,94139.81
2023-03-11T03:06:57.598Z,94126.28
2023-03-11T03:09:25.587Z,94121.88
2023-03-11T03:11:53.542Z,94118.38
2023-03-11T03:14:21.704Z,94103.00
2023-03-11T03:16:51.710Z,94104.41
2023-03-11T03:19:20.090Z,94107.56
2023-03-11T03:21:48.303Z,94099.38
2023-03-11T03:24:16.531Z,94098.81
2023-03-11T03:26:44.484Z,94096.34
2023-03-11T03:29:12.646Z,94092.72
2023-03-11T03:31:40.671Z,94098.69
2023-03-11T03:34:11.315Z,94088.91
2023-03-11T03:36:39.326Z,94078.34
2023-03-11T03:39:08.261Z,94070.00
2023-03-11T03:41:38.261Z,94060.94
2023-03-11T03:44:07.376Z,94055.28
2023-03-11T03:46:38.511Z,94057.25
2023-03-11T03:49:10.397Z,94052.44
2023-03-11T03:51:39.186Z,94040.63
2023-03-11T03:54:20.889Z,94062.50
2023-03-11T03:56:48.871Z,94057.88
2023-03-11T03:59:16.852Z,94059.66
2023-03-11T04:01:50.810Z,94054.34
2023-03-11T04:04:21.454Z,94051.78
2023-03-11T04:06:49.645Z,94046.81
2023-03-11T04:09:19.835Z,94043.41
2023-03-11T04:11:48.067Z,94029.56
2023-03-11T04:14:18.033Z,94035.09
2023-03-11T04:16:53.479Z,94046.72
2023-03-11T04:19:22.936Z,94051.28
2023-03-11T04:21:51.933Z,94064.47
2023-03-11T04:24:21.347Z,94045.75
2023-03-11T04:26:50.223Z,94035.41
2023-03-11T04:29:19.426Z,94011.06
2023-03-11T04:31:51.409Z,94027.63
2023-03-11T04:34:19.400Z,94048.19
2023-03-11T04:36:48.777Z,94039.00
2023-03-11T04:39:18.298Z,94031.34
2023-03-11T04:41:47.716Z,94024.25
2023-03-11T04:44:19.602Z,94019.44
2023-03-11T04:46:48.001Z,94038.16
2023-03-11T04:49:16.716Z,94059.78
2023-03-11T04:51:45.436Z,94086.16
2023-03-11T04:54:18.160Z,94114.09
2023-03-11T04:56:46.155Z,94114.09
2023-03-11T04:59:14.445Z,94105.41
2023-03-11T05:01:44.365Z,94098.31
2023-03-11T05:04:12.927Z,94084.13
2023-03-11T05:06:41.609Z,94064.69
2023-03-11T05:09:09.940Z,94062.25
2023-03-11T05:11:42.377Z,94067.44
2023-03-11T05:14:11.962Z,94057.63
2023-03-11T05:16:40.656Z,94047.13
2023-03-11T05:19:22.505Z,94047.13
2023-03-11T05:21:51.082Z,94031.72
2023-03-11T05:24:19.491Z,94040.28
2023-03-11T05:26:48.951Z,94060.47
2023-03-11T05:29:17.981Z,94062.66
2023-03-11T05:31:46.974Z,94072.16
2023-03-11T05:34:15.151Z,94069.09
2023-03-11T05:36:43.115Z,94054.25
2023-03-11T05:39:11.788Z,94048.06
2023-03-11T05:41:39.980Z,94042.31
2023-03-11T05:44:09.365Z,94047.38
2023-03-11T05:46:37.519Z,94041.75
2023-03-11T05:49:07.506Z,94041.31
2023-03-11T05:51:36.628Z,94044.47
2023-03-11T05:54:07.285Z,94051.22
2023-03-11T05:56:39.368Z,94050.53
2023-03-11T05:59:08.939Z,94045.81
2023-03-11T06:01:37.980Z,94047.38
2023-03-11T06:04:07.327Z,94059.56
2023-03-11T06:06:35.287Z,94061.59
2023-03-11T06:09:04.139Z,94052.13
2023-03-11T06:11:32.454Z,94054.03
2023-03-11T06:14:00.637Z,94049.19
2023-03-11T06:16:31.453Z,94069.94
2023-03-11T06:19:02.650Z,94058.88
2023-03-11T06:21:35.199Z,94069.25
2023-03-11T06:24:03.392Z,94081.88
2023-03-11T06:26:32.104Z,94076.59
2023-03-11T06:29:00.056Z,94083.09
2023-03-11T06:31:31.065Z,94094.66
2023-03-11T06:34:06.300Z,94106.16
2023-03-11T06:36:34.683Z,94114.50
2023-03-11T06:39:02.598Z,94109.59
2023-03-11T06:41:30.745Z,94121.78
2023-03-11T06:44:00.469Z,94120.19
2023-03-11T06:46:30.941Z,94117.03
2023-03-11T06:48:59.041Z,94113.69
2023-03-11T06:51:29.977Z,94114.38
2023-03-11T06:53:57.909Z,94123.84
2023-03-11T06:56:27.017Z,94113.47
2023-03-11T06:59:03.330Z,94123.16
2023-03-11T07:01:34.812Z,94110.31
2023-03-11T07:04:06.194Z,94106.28
2023-03-11T07:06:36.031Z,94114.28
2023-03-11T07:09:11.077Z,94114.84
2023-03-11T07:11:44.118Z,94108.22
2023-03-11T07:14:16.540Z,94120.31
2023-03-11T07:16:50.032Z,94121.88
2023-03-11T07:19:26.237Z,94128.19
2023-03-11T07:21:54.214Z,94129.31
2023-03-11T07:24:22.092Z,94125.13
2023-03-11T07:26:50.022Z,94120.72
2023-03-11T07:29:18.471Z,94138.56
2023-03-11T07:31:46.947Z,94142.75
2023-03-11T07:34:16.638Z,94149.84
2023-03-11T07:36:44.729Z,94137.22
2023-03-11T07:39:16.241Z,94137.22
2023-03-11T07:41:44.550Z,94118.72
2023-03-11T07:44:13.828Z,94125.94
2023-03-11T07:46:42.276Z,94118.72
2023-03-11T07:49:10.413Z,94127.53
2023-03-11T07:51:41.044Z,94122.69
2023-03-11T07:54:08.979Z,94121.44
2023-03-11T07:56:36.966Z,94127.41
2023-03-11T07:59:06.228Z,94131.81
2023-03-11T08:01:36.961Z,94140.63
2023-03-11T08:04:06.197Z,94155.28
2023-03-11T08:06:35.521Z,94156.63
2023-03-11T08:09:07.545Z,94155.16
2023-03-11T08:11:36.103Z,94168.38
2023-03-11T08:14:04.790Z,94164.88
2023-03-11T08:16:33.068Z,94158.22
2023-03-11T08:19:01.015Z,94158.88
2023-03-11T08:21:32.173Z,94173.56
2023-03-11T08:24:01.882Z,94184.75
2023-03-11T08:26:32.436Z,94197.72
2023-03-11T08:29:00.955Z,94203.13
2023-03-11T08:31:31.072Z,94211.38
2023-03-11T08:34:01.452Z,94218.38
2023-03-11T08:36:30.041Z,94217.19
2023-03-11T08:38:58.009Z,94229.50
2023-03-11T08:41:26.207Z,94219.56
2023-03-11T08:43:55.795Z,94229.16
2023-03-11T08:46:27.256Z,94232.47
2023-03-11T08:48:55.825Z,94223.47
2023-03-11T08:51:24.702Z,94232.16
2023-03-11T08:53:53.448Z,94231.38
2023-03-11T08:56:21.458Z,94243.13
2023-03-11T08:58:50.870Z,94239.38
2023-03-11T09:01:21.218Z,94236.75
2023-03-11T09:03:49.249Z,94246.72
2023-03-11T09:06:18.750Z,94250.34
2023-03-11T09:08:47.749Z,94255.53
2023-03-11T09:11:16.238Z,94255.09
2023-03-11T09:13:44.212Z,94257.78
2023-03-11T09:16:14.605Z,94259.47
2023-03-11T09:18:43.923Z,94258.91
2023-03-11T09:21:12.189Z,94267.50
2023-03-11T09:23:42.890Z,94259.38
2023-03-11T09:26:12.254Z,94264.09
2023-03-11T09:28:40.748Z,94264.78
2023-03-11T09:31:08.682Z,94260.28
2023-03-11T09:33:39.538Z,94262.97
2023-03-11T09:36:13.402Z,94269.28
2023-03-11T09:38:41.382Z,94272.47
2023-03-11T09:41:19.867Z,94265.69
2023-03-11T09:43:56.762Z,94264.78
2023-03-11T09:46:55.629Z,94264.94
2023-03-11T09:49:30.053Z,94273.38
2023-03-11T09:52:07.865Z,94266.34
2023-03-11T09:54:40.180Z,94262.59
2023-03-11T09:57:14.058Z,94264.50
2023-03-11T09:59:43.876Z,94266.22
2023-03-11T10:02:17.004Z,94271.28
2023-03-11T10:04:53.829Z,94274.91
2023-03-11T10:07:27.633Z,94275.38
2023-03-11T10:09:57.767Z,94283.41
2023-03-11T10:12:48.722Z,94285.31
2023-03-11T10:15:22.121Z,94291.84
2023-03-11T10:18:12.033Z,94300.34
2023-03-11T10:20:51.119Z,94304.53
2023-03-11T10:23:27.489Z,94300.44
2023-03-11T10:26:04.120Z,94308.38
2023-03-11T10:28:36.881Z,94304.63
2023-03-11T10:31:18.748Z,94295.63
2023-03-11T10:33:51.315Z,94307.28
2023-03-11T10:36:27.786Z,94309.88
2023-03-11T10:38:57.476Z,94307.03
2023-03-11T10:41:32.239Z,94297.97
2023-03-11T10:44:05.874Z,94312.84
2023-03-11T10:46:34.177Z,94315.34
2023-03-11T10:49:02.362Z,94320.75
2023-03-11T10:51:35.953Z,94314.16
2023-03-11T10:54:05.740Z,94313.69
2023-03-11T10:56:35.524Z,94301.84
2023-03-11T10:59:05.338Z,94306.81
2023-03-11T11:01:33.744Z,94306.44
2023-03-11T11:04:04.275Z,94302.50
2023-03-11T11:06:33.974Z,94307.38
2023-03-11T11:09:08.594Z,94309.16
2023-03-11T11:11:38.853Z,94313.44
2023-03-11T11:14:07.516Z,94309.00
2023-03-11T11:16:36.422Z,94313.59
2023-03-11T11:19:08.551Z,94302.91
2023-03-11T11:21:39.395Z,94305.78
2023-03-11T11:24:16.872Z,94310.66
2023-03-11T11:27:04.831Z,94318.09
2023-03-11T11:29:34.770Z,94316.66
2023-03-11T11:32:19.031Z,94308.47
2023-03-11T11:34:58.069Z,94312.72
2023-03-11T11:37:31.779Z,94304.97
2023-03-11T11:40:11.192Z,94313.13
2023-03-11T11:42:42.487Z,94309.56
2023-03-11T11:45:16.951Z,94306.06
2023-03-11T11:47:48.216Z,94305.72
2023-03-11T11:50:21.428Z,94296.94
2023-03-11T11:52:56.510Z,94299.84
2023-03-11T11:55:27.884Z,94299.13
2023-03-11T11:57:55.849Z,94294.06
2023-03-11T12:00:29.870Z,94297.69
2023-03-11T12:03:17.842Z,94305.28
2023-03-11T12:05:57.997Z,94309.56
2023-03-11T12:08:31.896Z,94313.34
2023-03-11T12:11:04.265Z,94316.59
2023-03-11T12:14:03.082Z,94317.94
2023-03-11T12:16:42.198Z,94319.97
2023-03-11T12:19:21.850Z,94316.81
2023-03-11T12:22:12.337Z,94317.44
2023-03-11T12:24:58.580Z,94317.16
2023-03-11T12:27:30.842Z,94321.56
2023-03-11T12:30:02.967Z,94311.63
2023-03-11T12:32:35.547Z,94323.94
2023-03-11T12:35:10.851Z,94325.03
2023-03-11T12:37:38.973Z,94314.06
2023-03-11T12:40:40.204Z,94304.50
2023-03-11T12:43:25.359Z,94308.00
2023-03-11T12:45:55.606Z,94307.22
2023-03-11T12:48:34.645Z,94305.16
2023-03-11T12:51:02.796Z,94301.22
2023-03-11T12:53:45.324Z,94311.28
2023-03-11T12:56:28.737Z,94313.81
2023-03-11T12:59:21.607Z,94300.31
2023-03-11T13:01:58.257Z,94300.09
2023-03-11T13:04:34.260Z,94295.50
2023-03-11T13:07:41.220Z,94308.47
2023-03-11T13:10:18.549Z,94305.31
2023-03-11T13:12:48.436Z,94296.00
2023-03-11T13:15:31.375Z,94298.38
2023-03-11T13:18:01.552Z,94297.41
2023-03-11T13:20:49.268Z,94295.84
2023-03-11T13:23:29.715Z,94291.22
2023-03-11T13:26:23.189Z,94300.56
2023-03-11T13:29:07.740Z,94307.66
2023-03-11T13:31:50.376Z,94306.72
2023-03-11T13:34:28.780Z,94315.09
2023-03-11T13:37:11.330Z,94319.81
2023-03-11T13:39:50.772Z,94319.34
2023-03-11T13:42:27.728Z,94318.91
2023-03-11T13:44:56.037Z,94319.34
2023-03-11T13:47:27.473Z,94322.97
2023-03-11T13:50:01.937Z,94323.63
2023-03-11T13:52:33.708Z,94327.41
2023-03-11T13:55:06.412Z,94339.53
2023-03-11T13:57:36.243Z,94343.06
2023-03-11T14:00:17.715Z,94344.72
2023-03-11T14:02:51.212Z,94339.41
2023-03-11T14:05:22.121Z,94342.09
2023-03-11T14:07:50.093Z,94347.72
2023-03-11T14:10:29.598Z,94347.03
2023-03-11T14:13:15.321Z,94348.59
2023-03-11T14:15:53.123Z,94347.94
2023-03-11T14:18:38.882Z,94342.44
2023-03-11T14:21:12.897Z,94358.69
2023-03-11T14:23:44.254Z,94354.16
2023-03-11T14:26:16.495Z,94358.97
2023-03-11T14:28:47.658Z,94351.75
2023-03-11T14:31:30.618Z,94363.75
2023-03-11T14:34:04.489Z,94363.28
2023-03-11T14:36:40.564Z,94357.91
2023-03-11T14:39:23.941Z,94369.28
2023-03-11T14:41:54.939Z,94371.09
2023-03-11T14:44:24.965Z,94369.22
2023-03-11T14:46:54.402Z,94374.19
2023-03-11T14:49:25.435Z,94367.72
2023-03-11T14:51:58.989Z,94367.22
2023-03-11T14:54:30.800Z,94361.56
2023-03-11T14:57:03.785Z,94362.81
2023-03-11T14:59:34.353Z,94368.00
2023-03-11T15:02:27.264Z,94360.44
2023-03-11T15:05:00.146Z,94371.91
2023-03-11T15:07:28.843Z,94362.50
2023-03-11T15:09:57.600Z,94373.41
2023-03-11T15:12:33.196Z,94372.94
2023-03-11T15:15:01.224Z,94379.25
2023-03-11T15:17:41.321Z,94378.78
2023-03-11T15:20:27.582Z,94382.88
2023-03-11T15:23:00.984Z,94383.91
2023-03-11T15:25:33.276Z,94385.50
2023-03-11T15:28:14.373Z,94391.75
2023-03-11T15:30:42.390Z,94401.09
2023-03-11T15:33:22.542Z,94397.44
2023-03-11T15:35:52.068Z,94400.59
2023-03-11T15:38:25.744Z,94404.66
2023-03-11T15:41:00.586Z,94398.41
2023-03-11T15:43:30.917Z,94391.19
2023-03-11T15:46:01.103Z,94392.53
2023-03-11T15:48:31.257Z,94402.19
2023-03-11T15:51:01.904Z,94400.91
2023-03-11T15:53:30.988Z,94418.97
2023-03-11T15:56:07.727Z,94413.75
2023-03-11T15:58:37.418Z,94418.97
2023-03-11T16:01:05.605Z,94421.78
2023-03-11T16:03:33.714Z,94424.63
2023-03-11T16:06:02.993Z,94419.41
2023-03-11T16:08:30.902Z,94421.00
2023-03-11T16:10:59.143Z,94426.22
2023-03-11T16:13:27.078Z,94424.97
2023-03-11T16:15:55.097Z,94427.34
2023-03-11T16:18:23.021Z,94439.34
2023-03-11T16:20:53.285Z,94431.53
2023-03-11T16:23:26.269Z,94438.81
2023-03-11T16:25:58.112Z,94435.66
2023-03-11T16:28:26.261Z,94447.09
2023-03-11T16:30:54.252Z,94455.94
2023-03-11T16:33:22.209Z,94444.47
2023-03-11T16:35:50.248Z,94457.53
2023-03-11T16:38:19.524Z,94466.38
2023-03-11T16:40:56.899Z,94477.16
2023-03-11T16:43:24.846Z,94464.03
2023-03-11T16:45:53.881Z,94467.75
2023-03-11T16:48:21.966Z,94470.97
2023-03-11T16:50:49.933Z,94465.28
2023-03-11T16:53:18.034Z,94475.72
2023-03-11T16:55:46.543Z,94476.19
2023-03-11T16:58:16.240Z,94474.59
2023-03-11T17:00:44.460Z,94473.03
2023-03-11T17:03:13.768Z,94487.91
2023-03-11T17:05:42.044Z,94489.63
2023-03-11T17:08:10.991Z,94488.84
2023-03-11T17:10:39.980Z,94500.19
2023-03-11T17:13:08.688Z,94486.91
2023-03-11T17:15:39.072Z,94490.13
2023-03-11T17:18:07.214Z,94490.13
2023-03-11T17:20:36.477Z,94492.72
2023-03-11T17:23:04.397Z,94501.00
2023-03-11T17:25:32.298Z,94501.00
2023-03-11T17:28:00.218Z,94513.00
2023-03-11T17:30:36.874Z,94506.69
2023-03-11T17:33:06.746Z,94513.31
2023-03-11T17:35:34.903Z,94520.59
2023-03-11T17:38:02.895Z,94527.38
2023-03-11T17:40:31.726Z,94515.38
2023-03-11T17:42:59.852Z,94513.56
2023-03-11T17:45:27.948Z,94523.75
2023-03-11T17:47:55.857Z,94538.59
2023-03-11T17:50:26.429Z,94543.03
2023-03-11T17:52:54.460Z,94542.47
2023-03-11T17:55:22.385Z,94551.88
2023-03-11T17:57:50.309Z,94558.69
2023-03-11T18:00:19.003Z,94562.63
2023-03-11T18:02:46.882Z,94569.09
2023-03-11T18:05:16.975Z,94559.47
2023-03-11T18:07:48.051Z,94572.75
2023-03-11T18:10:17.301Z,94571.56
2023-03-11T18:12:46.407Z,94575.66
2023-03-11T18:15:19.054Z,94574.56
2023-03-11T18:17:48.062Z,94583.41
2023-03-11T18:20:16.689Z,94587.34
2023-03-11T18:22:46.942Z,94592.25
2023-03-11T18:25:16.831Z,94600.31
2023-03-11T18:27:44.843Z,94600.53
2023-03-11T18:30:14.520Z,94609.94
2023-03-11T18:32:42.681Z,94601.09
2023-03-11T18:35:11.143Z,94610.41
2023-03-11T18:37:39.087Z,94608.34
2023-03-11T18:40:08.475Z,94606.78
2023-03-11T18:42:37.945Z,94605.19
2023-03-11T18:45:07.070Z,94617.66
2023-03-11T18:47:35.837Z,94621.28
2023-03-11T18:50:03.906Z,94622.88
2023-03-11T18:52:33.043Z,94623.91
2023-03-11T18:55:00.972Z,94635.34
2023-03-11T18:57:28.899Z,94635.78
2023-03-11T18:59:58.152Z,94635.00
2023-03-11T19:02:27.101Z,94631.97
2023-03-11T19:04:55.385Z,94649.63
2023-03-11T19:07:23.614Z,94649.63
2023-03-11T19:09:51.529Z,94654.97
2023-03-11T19:12:19.507Z,94656.31
2023-03-11T19:14:47.600Z,94649.88
2023-03-11T19:17:18.402Z,94654.19
2023-03-11T19:19:46.621Z,94660.28
2023-03-11T19:22:14.503Z,94667.66
2023-03-11T19:24:42.596Z,94663.00
2023-03-11T19:27:10.485Z,94669.69
2023-03-11T19:29:38.394Z,94668.22
2023-03-11T19:32:07.172Z,94675.03
2023-03-11T19:34:36.753Z,94671.41
2023-03-11T19:37:04.727Z,94674.25
2023-03-11T19:39:32.605Z,94679.88
2023-03-11T19:42:00.578Z,94686.34
2023-03-11T19:44:28.575Z,94689.97
2023-03-11T19:46:56.547Z,94690.53
2023-03-11T19:49:24.854Z,94687.84
2023-03-11T19:51:56.115Z,94691.81
2023-03-11T19:54:24.145Z,94698.59
2023-03-11T19:56:52.116Z,94698.59
2023-03-11T19:59:20.172Z,94697.00
2023-03-11T20:01:48.163Z,94690.22
2023-03-11T20:04:16.549Z,94701.75
2023-03-11T20:06:45.204Z,94692.94
2023-03-11T20:09:16.252Z,94696.22
2023-03-11T20:11:45.707Z,94700.63
2023-03-11T20:14:13.979Z,94701.75
2023-03-11T20:16:42.234Z,94713.78
2023-03-11T20:19:10.277Z,94719.19
2023-03-11T20:21:40.699Z,94713.78
2023-03-11T20:24:09.857Z,94714.06
2023-03-11T20:26:39.707Z,94698.13
2023-03-11T20:29:07.883Z,94700.41
2023-03-11T20:31:36.444Z,94719.19
2023-03-11T20:34:04.959Z,94717.63
2023-03-11T20:36:34.472Z,94729.50
2023-03-11T20:39:03.091Z,94728.94
2023-03-11T20:41:35.423Z,94729.97
2023-03-11T20:44:07.542Z,94730.53
2023-03-11T20:46:35.641Z,94741.63
2023-03-11T20:49:04.322Z,94746.06
2023-03-11T20:51:32.263Z,94742.09
2023-03-11T20:54:00.253Z,94736.88
2023-03-11T20:56:28.593Z,94743.34
2023-03-11T20:58:59.069Z,94739.81
2023-03-11T21:01:30.539Z,94742.72
2023-03-11T21:03:59.933Z,94748.50
2023-03-11T21:06:30.290Z,94752.91
2023-03-11T21:09:00.586Z,94758.13
2023-03-11T21:11:29.223Z,94754.16
2023-03-11T21:13:57.981Z,94754.50
2023-03-11T21:16:27.014Z,94764.34
2023-03-11T21:18:56.648Z,94759.72
2023-03-11T21:21:24.763Z,94759.84
2023-03-11T21:23:52.690Z,94771.53
2023-03-11T21:26:20.699Z,94765.16
2023-03-11T21:28:48.731Z,94766.09
2023-03-11T21:31:19.573Z,94772.66
2023-03-11T21:33:47.877Z,94784.69
2023-03-11T21:36:18.010Z,94788.06
2023-03-11T21:38:46.281Z,94789.56
2023-03-11T21:41:16.670Z,94793.06
2023-03-11T21:43:45.815Z,94784.34
2023-03-11T21:46:16.245Z,94784.34
2023-03-11T21:48:44.654Z,94795.78
2023-03-11T21:51:12.705Z,94786.94
2023-03-11T21:53:42.147Z,94799.41
2023-03-11T21:56:10.123Z,94797.81
2023-03-11T21:58:38.374Z,94796.25
2023-03-11T22:01:07.145Z,94795.44
2023-03-11T22:03:36.043Z,94812.88
2023-03-11T22:06:06.791Z,94811.88
2023-03-11T22:08:35.927Z,94810.16
2023-03-11T22:11:09.709Z,94809.59
2023-03-11T22:13:38.074Z,94813.78
2023-03-11T22:16:07.512Z,94818.44
2023-03-11T22:18:36.017Z,94826.03
2023-03-11T22:21:04.188Z,94820.47
2023-03-11T22:23:32.167Z,94815.44
2023-03-11T22:26:00.151Z,94822.06
2023-03-11T22:28:29.507Z,94821.59
2023-03-11T22:30:57.441Z,94823.19
2023-03-11T22:33:25.358Z,94827.16
2023-03-11T22:35:55.526Z,94823.19
2023-03-11T22:38:23.536Z,94828.84
2023-03-11T22:40:51.680Z,94819.44
2023-03-11T22:43:19.855Z,94823.63
2023-03-11T22:45:49.251Z,94823.06
2023-03-11T22:48:17.186Z,94822.06
2023-03-11T22:50:45.713Z,94829.41
2023-03-11T22:53:15.223Z,94828.06
2023-03-11T22:55:44.040Z,94839.72
2023-03-11T22:58:13.203Z,94846.53
2023-03-11T23:00:44.094Z,94852.88
2023-03-11T23:03:13.964Z,94840.41
2023-03-11T23:05:42.385Z,94843.59
2023-03-11T23:08:12.328Z,94848.81
2023-03-11T23:10:41.057Z,94844.38
2023-03-11T23:13:09.661Z,94857.06
2023-03-11T23:15:38.041Z,94862.75
2023-03-11T23:18:06.664Z,94867.97
2023-03-11T23:20:37.482Z,94868.66
2023-03-11T23:23:06.122Z,94870.38
2023-03-11T23:25:34.793Z,94866.56
2023-03-11T23:28:03.868Z,94870.97
2023-03-11T23:30:32.610Z,94890.53
2023-03-11T23:33:02.856Z,94893.47
2023-03-11T23:35:31.255Z,94899.09
2023-03-11T23:38:01.269Z,94886.94
2023-03-11T23:40:29.232Z,94887.66
2023-03-11T23:42:57.270Z,94880.56
2023-03-11T23:45:25.245Z,94888.28
2023-03-11T23:47:53.251Z,94878.66
2023-03-11T23:50:21.221Z,94872.41
2023-03-11T23:52:49.214Z,94879.78
2023-03-11T23:55:18.774Z,94879.00
2023-03-11T23:57:46.697Z,94885.00
